Aviation Digital Data Service (ADDS)

Output produced by METARs form (1236 UTC 19 February 2020)
found at http://aviationweather.gov/metar/data/
 
KGJT 191124Z 1912/2012 00000KT P6SM SCT150 
     FM192100 33005KT P6SM SCT180 
     FM200000 35008KT P6SM SCT200 
     FM200400 02005KT P6SM FEW250